Calhoun, Kentucky
Current Conditions -  °F | °C
As of 3:56 AM on Wednesday 22 Oct 2014 (Local Time) from KOWB Reporting Station
Clear Clear  
Wind Chill: 42°   Ceiling: Unl
Heat Index: 46°   Visibility: 10mi
Dew Point: 43°   Wind: 8mph
Humidity: 90%   Direction: 50°NE
Pressure: 30.21"   Gusts: NA
Location:  37.54°N, 87.26°W
Report Text: KOWB 220856Z AUTO 05007KT 10SM CLR 08/06 A3021 RMK AO2 TSNO 52009 60000 T00770061 SLP230
Loading
Personal Weather Stations






























Interactive Weather Map
Tropical Storm Tracking
New forecast layout! Learn more

10-Day Weather Forecast

Advertisements
Track Severe Weather on mobile